createdAt,value
2022-10-26T00:01:09.488Z,93.93
2022-10-26T00:03:37.186Z,93.86
2022-10-26T00:06:09.979Z,93.67
2022-10-26T00:08:37.064Z,94.18
2022-10-26T00:11:04.755Z,93.91
2022-10-26T00:13:31.534Z,94.24
2022-10-26T00:18:29.680Z,94.22
2022-10-26T00:21:03.048Z,94.43
2022-10-26T00:23:29.498Z,94.16
2022-10-26T00:25:57.093Z,94.38
2022-10-26T00:28:24.065Z,94.35
2022-10-26T00:30:51.080Z,94.37
2022-10-26T00:33:17.903Z,94.28
2022-10-26T00:35:47.782Z,94.24
2022-10-26T00:38:14.348Z,94.56
2022-10-26T00:40:41.118Z,94.48
2022-10-26T00:43:21.252Z,94.39
2022-10-26T00:45:51.335Z,94.53
2022-10-26T00:48:30.045Z,94.62
2022-10-26T00:51:00.375Z,94.98
2022-10-26T00:53:28.876Z,95.10
2022-10-26T00:55:56.114Z,94.65
2022-10-26T00:58:23.211Z,94.70
2022-10-26T01:00:51.452Z,94.83
2022-10-26T01:03:19.302Z,95.09
2022-10-26T01:05:47.940Z,95.23
2022-10-26T01:08:16.802Z,95.25
2022-10-26T01:10:43.860Z,94.80
2022-10-26T01:13:12.533Z,95.25
2022-10-26T01:15:56.981Z,95.41
2022-10-26T01:18:29.769Z,94.89
2022-10-26T01:21:19.059Z,94.96
2022-10-26T01:24:10.379Z,95.09
2022-10-26T01:27:04.203Z,94.92
2022-10-26T01:29:49.183Z,94.82
2022-10-26T01:32:25.884Z,94.88
2022-10-26T01:35:15.957Z,95.46
2022-10-26T01:38:04.281Z,95.13
2022-10-26T01:40:54.494Z,95.70
2022-10-26T01:43:22.626Z,95.81
2022-10-26T01:45:52.393Z,95.58
2022-10-26T01:48:21.527Z,95.83
2022-10-26T01:50:53.919Z,96.14
2022-10-26T01:53:20.775Z,96.29
2022-10-26T01:55:52.649Z,96.02
2022-10-26T01:59:08.710Z,96.20
2022-10-26T02:01:53.571Z,96.03
2022-10-26T02:04:41.658Z,96.10
2022-10-26T02:07:34.191Z,95.83
2022-10-26T02:10:28.713Z,95.47
2022-10-26T02:13:09.057Z,95.73
2022-10-26T02:15:49.231Z,95.88
2022-10-26T02:18:24.113Z,95.65
2022-10-26T02:20:55.346Z,95.84
2022-10-26T02:23:24.937Z,96.00
2022-10-26T02:25:56.411Z,96.29
2022-10-26T02:28:28.941Z,96.10
2022-10-26T02:30:58.986Z,96.31
2022-10-26T02:33:29.016Z,96.59
2022-10-26T02:35:58.618Z,96.08
2022-10-26T02:38:27.229Z,95.90
2022-10-26T02:40:56.012Z,95.74
2022-10-26T02:43:24.721Z,95.82
2022-10-26T02:45:57.147Z,96.18
2022-10-26T02:48:24.233Z,96.03
2022-10-26T02:51:00.086Z,95.76
2022-10-26T02:53:46.557Z,95.94
2022-10-26T02:56:20.185Z,96.25
2022-10-26T02:58:52.721Z,96.27
2022-10-26T03:01:19.304Z,96.13
2022-10-26T03:03:46.803Z,96.27
2022-10-26T03:06:20.859Z,96.44
2022-10-26T03:08:47.331Z,96.21
2022-10-26T03:11:13.916Z,96.75
2022-10-26T03:13:40.572Z,96.43
2022-10-26T03:16:07.165Z,95.97
2022-10-26T03:18:33.617Z,96.19
2022-10-26T03:21:00.373Z,96.51
2022-10-26T03:23:26.875Z,96.48
2022-10-26T03:26:02.220Z,96.74
2022-10-26T03:28:30.098Z,96.42
2022-10-26T03:30:56.609Z,96.52
2022-10-26T03:33:25.708Z,96.78
2022-10-26T03:35:55.923Z,96.60
2022-10-26T03:38:22.533Z,96.31
2022-10-26T03:40:49.119Z,96.33
2022-10-26T03:43:15.668Z,95.88
2022-10-26T03:45:42.114Z,96.16
2022-10-26T03:48:08.706Z,96.03
2022-10-26T03:50:35.165Z,95.79
2022-10-26T03:53:01.662Z,96.00
2022-10-26T03:55:28.135Z,96.44
2022-10-26T03:57:54.669Z,96.58
2022-10-26T04:00:21.310Z,96.63
2022-10-26T04:02:55.177Z,96.79
2022-10-26T04:05:22.036Z,96.30
2022-10-26T04:07:58.907Z,96.32
2022-10-26T04:10:27.550Z,96.17
2022-10-26T04:12:54.875Z,96.38
2022-10-26T04:15:22.354Z,96.21
2022-10-26T04:17:49.145Z,96.10
2022-10-26T04:20:15.847Z,96.04
2022-10-26T04:22:42.493Z,96.14
2022-10-26T04:25:10.465Z,96.22
2022-10-26T04:27:36.870Z,96.25
2022-10-26T04:30:03.673Z,95.87
2022-10-26T04:32:30.182Z,95.71
2022-10-26T04:34:56.640Z,96.03
2022-10-26T04:37:23.160Z,96.00
2022-10-26T04:39:50.552Z,96.64
2022-10-26T04:42:17.028Z,96.88
2022-10-26T04:44:43.618Z,97.09
2022-10-26T04:47:10.214Z,96.76
2022-10-26T04:49:36.813Z,96.78
2022-10-26T04:52:07.679Z,96.50
2022-10-26T04:54:34.149Z,96.18
2022-10-26T04:57:00.668Z,96.04
2022-10-26T04:59:27.077Z,96.41
2022-10-26T05:01:53.897Z,96.25
2022-10-26T05:04:20.387Z,96.02
2022-10-26T05:06:46.917Z,96.48
2022-10-26T05:09:13.782Z,96.58
2022-10-26T05:11:40.323Z,96.40
2022-10-26T05:14:07.149Z,97.04
2022-10-26T05:16:33.837Z,96.89
2022-10-26T05:19:00.289Z,96.71
2022-10-26T05:21:26.750Z,96.57
2022-10-26T05:23:55.509Z,96.38
2022-10-26T05:26:23.445Z,96.50
2022-10-26T05:28:51.741Z,96.16
2022-10-26T05:31:18.626Z,96.68
2022-10-26T05:33:48.678Z,96.49
2022-10-26T05:36:15.280Z,96.39
2022-10-26T05:38:41.778Z,96.41
2022-10-26T05:41:08.249Z,95.98
2022-10-26T05:43:34.715Z,95.70
2022-10-26T05:46:03.802Z,95.53
2022-10-26T05:48:30.425Z,95.73
2022-10-26T05:51:01.339Z,95.71
2022-10-26T05:53:28.559Z,96.01
2022-10-26T05:55:56.132Z,95.73
2022-10-26T05:58:23.439Z,96.04
2022-10-26T06:01:22.426Z,96.02
2022-10-26T06:04:27.708Z,96.20
2022-10-26T06:06:55.245Z,96.15
2022-10-26T06:09:21.980Z,96.51
2022-10-26T06:14:20.993Z,96.64
2022-10-26T06:17:19.665Z,96.37
2022-10-26T06:20:09.399Z,96.77
2022-10-26T06:22:43.093Z,96.33
2022-10-26T06:25:22.417Z,96.35
2022-10-26T06:28:24.210Z,96.41
2022-10-26T06:30:51.622Z,96.39
2022-10-26T06:33:29.016Z,96.07
2022-10-26T06:36:03.298Z,96.31
2022-10-26T06:38:33.759Z,96.54
2022-10-26T06:41:03.319Z,96.27
2022-10-26T06:43:33.875Z,96.84
2022-10-26T06:46:08.282Z,96.29
2022-10-26T06:48:47.849Z,96.42
2022-10-26T06:51:17.142Z,96.75
2022-10-26T06:53:53.076Z,96.10
2022-10-26T06:56:20.010Z,96.72
2022-10-26T06:58:49.238Z,96.58
2022-10-26T07:01:16.864Z,96.51
2022-10-26T07:03:43.624Z,96.57
2022-10-26T07:06:10.297Z,96.44
2022-10-26T07:08:37.106Z,96.50
2022-10-26T07:11:04.689Z,96.68
2022-10-26T07:13:31.192Z,97.31
2022-10-26T07:15:57.610Z,97.19
2022-10-26T07:18:24.085Z,97.29
2022-10-26T07:20:50.630Z,97.58
2022-10-26T07:23:17.279Z,98.16
2022-10-26T07:25:43.926Z,97.94
2022-10-26T07:28:11.744Z,98.75
2022-10-26T07:30:40.038Z,98.35
2022-10-26T07:33:11.993Z,98.77
2022-10-26T07:35:39.070Z,98.66
2022-10-26T07:38:06.635Z,98.56
2022-10-26T07:40:33.301Z,98.78
2022-10-26T07:43:00.965Z,99.27
2022-10-26T07:45:29.103Z,98.90
2022-10-26T07:47:56.042Z,99.69
2022-10-26T07:50:23.502Z,99.91
2022-10-26T07:52:50.915Z,99.95
2022-10-26T07:55:19.084Z,99.81
2022-10-26T07:57:47.568Z,99.78
2022-10-26T08:00:17.833Z,99.98
2022-10-26T08:02:44.961Z,99.98
2022-10-26T08:05:11.869Z,100.00
2022-10-26T08:07:43.885Z,100.00
2022-10-26T08:10:12.122Z,100.00
2022-10-26T08:12:39.240Z,99.96
2022-10-26T08:15:06.623Z,100.00
2022-10-26T08:17:33.350Z,100.00
2022-10-26T08:19:59.822Z,100.00
2022-10-26T08:22:28.384Z,100.00
2022-10-26T08:24:54.837Z,100.00
2022-10-26T08:27:21.308Z,100.00
2022-10-26T08:29:47.690Z,100.00
2022-10-26T08:32:14.305Z,100.00
2022-10-26T08:34:40.806Z,100.00
2022-10-26T08:37:07.247Z,100.00
2022-10-26T08:39:33.704Z,100.00
2022-10-26T08:42:26.479Z,100.00
2022-10-26T08:44:59.165Z,100.00
2022-10-26T08:47:31.551Z,100.00
2022-10-26T08:50:13.315Z,100.00
2022-10-26T08:53:05.361Z,100.00
2022-10-26T08:58:17.414Z,100.00
2022-10-26T09:00:47.072Z,100.00
2022-10-26T09:03:15.401Z,100.00
2022-10-26T09:05:55.376Z,100.00
2022-10-26T09:08:41.782Z,100.00
2022-10-26T09:11:14.443Z,100.00
2022-10-26T09:13:59.924Z,100.00
2022-10-26T09:16:58.448Z,100.00
2022-10-26T09:20:00.121Z,100.00
2022-10-26T09:22:41.546Z,100.00
2022-10-26T09:25:29.105Z,100.00
2022-10-26T09:27:58.468Z,100.00
2022-10-26T09:30:25.194Z,100.00
2022-10-26T09:33:24.097Z,98.02
2022-10-26T09:35:56.713Z,97.76
2022-10-26T09:39:25.403Z,98.12
2022-10-26T09:42:13.850Z,98.17
2022-10-26T09:44:55.793Z,98.02
2022-10-26T09:47:39.637Z,97.53
2022-10-26T09:50:13.841Z,97.56
2022-10-26T09:52:40.409Z,97.08
2022-10-26T09:55:10.544Z,96.19
2022-10-26T09:57:39.649Z,96.03
2022-10-26T10:00:06.546Z,96.02
2022-10-26T10:02:49.412Z,95.79
2022-10-26T10:05:49.793Z,95.72
2022-10-26T10:08:20.966Z,95.82
2022-10-26T10:11:07.232Z,95.52
2022-10-26T10:13:36.783Z,93.73
2022-10-26T10:16:23.082Z,93.03
2022-10-26T10:18:55.666Z,93.15
2022-10-26T10:21:44.562Z,92.70
2022-10-26T10:24:27.987Z,91.38
2022-10-26T10:27:02.064Z,89.69
2022-10-26T10:29:34.850Z,88.55
2022-10-26T10:32:05.109Z,87.68
2022-10-26T10:34:32.952Z,87.34
2022-10-26T10:37:02.867Z,86.45
2022-10-26T10:39:42.643Z,86.22
2022-10-26T10:42:27.210Z,85.95
2022-10-26T10:44:55.673Z,86.04
2022-10-26T10:47:36.621Z,85.65
2022-10-26T10:50:19.983Z,84.36
2022-10-26T10:52:47.316Z,84.90
2022-10-26T10:55:14.152Z,83.84
2022-10-26T10:57:58.880Z,83.47
2022-10-26T11:00:27.396Z,83.63
2022-10-26T11:03:14.155Z,83.64
2022-10-26T11:05:43.753Z,84.26
2022-10-26T11:08:18.245Z,83.56
2022-10-26T11:10:57.977Z,83.14
2022-10-26T11:13:29.910Z,82.95
2022-10-26T11:16:07.560Z,82.37
2022-10-26T11:18:41.250Z,81.21
2022-10-26T11:21:28.899Z,81.04
2022-10-26T11:24:12.108Z,80.13
2022-10-26T11:26:49.082Z,78.65
2022-10-26T11:29:47.593Z,79.22
2022-10-26T11:32:22.560Z,78.41
2022-10-26T11:35:13.318Z,78.75
2022-10-26T11:38:03.338Z,78.56
2022-10-26T11:40:45.082Z,78.26
2022-10-26T11:43:21.548Z,78.26
2022-10-26T11:46:02.676Z,75.51
2022-10-26T11:48:37.543Z,75.57
2022-10-26T11:51:05.202Z,74.69
2022-10-26T11:53:38.709Z,75.08
2022-10-26T11:56:14.391Z,75.76
2022-10-26T11:58:41.461Z,75.42
2022-10-26T12:01:12.195Z,74.91
2022-10-26T12:03:45.658Z,75.01
2022-10-26T12:06:15.182Z,74.18
2022-10-26T12:08:55.178Z,72.86
2022-10-26T12:11:45.939Z,71.97
2022-10-26T12:14:24.795Z,68.84
2022-10-26T12:17:12.638Z,69.80
2022-10-26T12:20:02.916Z,69.70
2022-10-26T12:22:34.561Z,69.52
2022-10-26T12:25:19.963Z,69.17
2022-10-26T12:27:49.326Z,69.86
2022-10-26T12:30:18.757Z,69.63
2022-10-26T12:32:45.147Z,69.42
2022-10-26T12:35:17.558Z,69.23
2022-10-26T12:37:44.291Z,69.87
2022-10-26T12:40:32.640Z,69.42
2022-10-26T12:43:14.462Z,69.73
2022-10-26T12:46:12.975Z,69.82
2022-10-26T12:48:46.699Z,69.35
2022-10-26T12:51:40.016Z,69.41
2022-10-26T12:54:41.966Z,68.75
2022-10-26T12:57:29.926Z,67.98
2022-10-26T13:00:03.006Z,67.32
2022-10-26T13:02:52.370Z,67.50
2022-10-26T13:05:33.633Z,67.20
2022-10-26T13:08:09.413Z,66.68
2022-10-26T13:10:40.254Z,66.39
2022-10-26T13:13:08.252Z,66.61
2022-10-26T13:15:40.882Z,66.49
2022-10-26T13:18:10.110Z,66.38
2022-10-26T13:20:52.014Z,65.82
2022-10-26T13:23:31.103Z,66.11
2022-10-26T13:26:17.848Z,65.34
2022-10-26T13:28:48.613Z,65.12
2022-10-26T13:31:23.974Z,65.44
2022-10-26T13:33:57.828Z,65.52
2022-10-26T13:36:38.766Z,65.45
2022-10-26T13:39:20.531Z,65.24
2022-10-26T13:41:51.152Z,65.37
2022-10-26T13:44:26.179Z,65.68
2022-10-26T13:46:58.441Z,66.23
2022-10-26T13:49:30.667Z,66.04
2022-10-26T13:52:02.249Z,65.93
2022-10-26T13:54:36.738Z,65.76
2022-10-26T13:57:34.003Z,66.04
2022-10-26T14:00:07.816Z,65.76
2022-10-26T14:02:42.090Z,66.10
2022-10-26T14:05:12.399Z,66.75
2022-10-26T14:07:55.863Z,67.08
2022-10-26T14:10:34.537Z,67.52
2022-10-26T14:13:06.587Z,67.57
2022-10-26T14:15:34.806Z,67.96
2022-10-26T14:18:02.790Z,68.33
2022-10-26T14:20:31.647Z,69.12
2022-10-26T14:22:58.138Z,69.03
2022-10-26T14:25:41.752Z,69.21
2022-10-26T14:28:26.672Z,69.45
2022-10-26T14:30:53.171Z,69.51
2022-10-26T14:33:25.935Z,69.51
2022-10-26T14:35:52.943Z,70.04
2022-10-26T14:38:26.385Z,70.32
2022-10-26T14:40:56.677Z,70.84
2022-10-26T14:43:25.606Z,70.87
2022-10-26T14:45:54.197Z,71.54
2022-10-26T14:48:32.626Z,71.79
2022-10-26T14:51:02.738Z,72.00
2022-10-26T14:53:53.525Z,71.82
2022-10-26T14:56:25.045Z,72.75
2022-10-26T14:58:52.990Z,73.32
2022-10-26T15:01:22.372Z,73.23
2022-10-26T15:04:04.539Z,73.43
2022-10-26T15:06:32.642Z,74.01
2022-10-26T15:09:00.678Z,74.29
2022-10-26T15:11:29.683Z,74.47
2022-10-26T15:13:57.874Z,74.37
2022-10-26T15:16:27.954Z,74.63
2022-10-26T15:18:58.797Z,75.02
2022-10-26T15:21:31.972Z,75.75
2022-10-26T15:23:59.320Z,75.81
2022-10-26T15:26:26.051Z,75.97
2022-10-26T15:28:53.751Z,76.34
2022-10-26T15:31:20.216Z,76.64
2022-10-26T15:33:52.907Z,77.13
2022-10-26T15:36:25.652Z,77.16
2022-10-26T15:38:52.157Z,78.22
2022-10-26T15:41:30.638Z,78.11
2022-10-26T15:44:01.858Z,78.55
2022-10-26T15:46:31.066Z,78.48
2022-10-26T15:49:00.009Z,78.93
2022-10-26T15:51:29.308Z,79.28
2022-10-26T15:54:00.247Z,79.50
2022-10-26T15:56:26.774Z,79.68
2022-10-26T15:58:56.687Z,80.09
2022-10-26T16:01:28.451Z,80.48
2022-10-26T16:03:55.353Z,80.39
2022-10-26T16:06:30.724Z,81.07
2022-10-26T16:09:00.303Z,81.84
2022-10-26T16:11:29.246Z,81.87
2022-10-26T16:13:58.244Z,82.34
2022-10-26T16:16:28.050Z,82.86
2022-10-26T16:19:11.811Z,83.00
2022-10-26T16:21:42.656Z,82.78
2022-10-26T16:24:09.823Z,83.84
2022-10-26T16:26:36.291Z,84.28
2022-10-26T16:29:03.369Z,84.08
2022-10-26T16:31:29.797Z,84.10
2022-10-26T16:34:00.187Z,84.42
2022-10-26T16:36:29.753Z,84.74
2022-10-26T16:38:56.428Z,84.99
2022-10-26T16:41:22.916Z,85.41
2022-10-26T16:43:49.464Z,85.91
2022-10-26T16:46:18.483Z,86.17
2022-10-26T16:48:46.690Z,86.56
2022-10-26T16:51:20.265Z,87.00
2022-10-26T16:53:48.237Z,87.17
2022-10-26T16:56:17.688Z,87.37
2022-10-26T16:58:44.713Z,87.42
2022-10-26T17:01:13.314Z,88.17
2022-10-26T17:03:40.032Z,87.83
2022-10-26T17:06:07.794Z,88.03
2022-10-26T17:08:35.992Z,88.56
2022-10-26T17:11:08.733Z,88.62
2022-10-26T17:13:36.485Z,89.46
2022-10-26T17:16:08.626Z,89.04
2022-10-26T17:18:35.179Z,90.16
2022-10-26T17:21:02.823Z,90.08
2022-10-26T17:23:29.369Z,90.56
2022-10-26T17:26:01.206Z,90.48
2022-10-26T17:28:27.854Z,90.51
2022-10-26T17:31:15.029Z,90.96
2022-10-26T17:33:43.801Z,91.49
2022-10-26T17:36:12.525Z,91.45
2022-10-26T17:38:43.461Z,91.86
2022-10-26T17:41:12.589Z,92.05
2022-10-26T17:43:41.139Z,92.51
2022-10-26T17:46:11.068Z,92.42
2022-10-26T17:48:38.366Z,92.41
2022-10-26T17:51:07.861Z,92.45
2022-10-26T17:53:34.253Z,92.75
2022-10-26T17:56:06.244Z,92.65
2022-10-26T17:58:33.891Z,93.00
2022-10-26T18:01:02.526Z,93.45
2022-10-26T18:03:29.145Z,93.55
2022-10-26T18:05:55.799Z,93.79
2022-10-26T18:08:22.460Z,93.53
2022-10-26T18:10:50.930Z,93.53
2022-10-26T18:13:19.022Z,93.86
2022-10-26T18:15:45.826Z,93.88
2022-10-26T18:18:12.556Z,94.40
2022-10-26T18:20:39.684Z,94.70
2022-10-26T18:23:06.404Z,95.03
2022-10-26T18:25:33.815Z,94.94
2022-10-26T18:28:00.425Z,94.86
2022-10-26T18:30:28.190Z,95.33
2022-10-26T18:32:54.714Z,95.76
2022-10-26T18:35:21.489Z,95.43
2022-10-26T18:37:48.264Z,95.75
2022-10-26T18:40:15.274Z,95.97
2022-10-26T18:42:42.423Z,96.15
2022-10-26T18:45:09.243Z,96.54
2022-10-26T18:47:35.699Z,96.82
2022-10-26T18:50:02.157Z,96.70
2022-10-26T18:52:28.663Z,97.03
2022-10-26T18:54:55.447Z,97.35
2022-10-26T18:57:26.914Z,97.27
2022-10-26T18:59:55.145Z,97.34
2022-10-26T19:02:22.834Z,97.50
2022-10-26T19:04:51.686Z,97.68
2022-10-26T19:07:18.210Z,97.57
2022-10-26T19:09:44.830Z,98.07
2022-10-26T19:12:11.487Z,98.34
2022-10-26T19:14:38.078Z,98.16
2022-10-26T19:17:06.016Z,98.76
2022-10-26T19:19:33.043Z,98.57
2022-10-26T19:22:00.950Z,98.75
2022-10-26T19:24:27.531Z,98.97
2022-10-26T19:26:54.316Z,98.74
2022-10-26T19:29:21.118Z,98.92
2022-10-26T19:31:51.991Z,98.79
2022-10-26T19:34:18.506Z,99.32
2022-10-26T19:36:46.730Z,99.30
2022-10-26T19:39:14.873Z,99.42
2022-10-26T19:41:41.678Z,100.00
2022-10-26T19:44:11.103Z,100.00
2022-10-26T19:46:39.398Z,100.00
2022-10-26T19:49:06.853Z,100.00
2022-10-26T19:51:34.040Z,100.00
2022-10-26T19:54:04.231Z,100.00
2022-10-26T19:56:32.079Z,100.00
2022-10-26T19:58:58.598Z,100.00
2022-10-26T20:01:25.250Z,100.00
2022-10-26T20:03:52.764Z,100.00
2022-10-26T20:06:19.882Z,100.00
2022-10-26T20:08:49.105Z,100.00
2022-10-26T20:11:19.498Z,100.00
2022-10-26T20:13:47.573Z,100.00
2022-10-26T20:16:16.579Z,100.00
2022-10-26T20:18:47.612Z,100.00
2022-10-26T20:21:16.631Z,100.00
2022-10-26T20:23:44.201Z,100.00
2022-10-26T20:26:18.118Z,100.00
2022-10-26T20:28:49.162Z,100.00
2022-10-26T20:31:15.786Z,100.00
2022-10-26T20:33:42.710Z,100.00
2022-10-26T20:36:09.418Z,100.00
2022-10-26T20:38:36.316Z,100.00
2022-10-26T20:41:06.299Z,100.00
2022-10-26T20:43:38.965Z,100.00
2022-10-26T20:46:06.493Z,100.00
2022-10-26T20:48:33.203Z,100.00
2022-10-26T20:51:19.646Z,100.00
2022-10-26T20:54:11.827Z,100.00
2022-10-26T20:56:43.800Z,100.00
2022-10-26T20:59:24.960Z,100.00
2022-10-26T21:01:52.046Z,100.00
2022-10-26T21:04:18.629Z,100.00
2022-10-26T21:06:45.498Z,100.00
2022-10-26T21:09:11.951Z,100.00
2022-10-26T21:11:38.430Z,100.00
2022-10-26T21:14:06.257Z,100.00
2022-10-26T21:16:33.120Z,100.00
2022-10-26T21:19:00.249Z,100.00
2022-10-26T21:21:27.300Z,100.00
2022-10-26T21:23:54.881Z,100.00
2022-10-26T21:26:21.442Z,100.00
2022-10-26T21:28:48.594Z,100.00
2022-10-26T21:31:18.242Z,100.00
2022-10-26T21:33:46.004Z,100.00
2022-10-26T21:36:14.038Z,100.00
2022-10-26T21:38:42.634Z,100.00
2022-10-26T21:41:09.153Z,100.00
2022-10-26T21:43:37.510Z,100.00
2022-10-26T21:46:04.406Z,100.00
2022-10-26T21:48:32.454Z,100.00
2022-10-26T21:51:03.516Z,100.00
2022-10-26T21:53:30.118Z,100.00
2022-10-26T21:56:04.883Z,100.00
2022-10-26T21:58:31.879Z,100.00
2022-10-26T22:01:09.859Z,100.00
2022-10-26T22:03:37.382Z,100.00
2022-10-26T22:06:06.000Z,100.00
2022-10-26T22:08:33.090Z,100.00
2022-10-26T22:11:10.570Z,100.00
2022-10-26T22:13:39.879Z,100.00
2022-10-26T22:16:15.322Z,100.00
2022-10-26T22:18:44.207Z,100.00
2022-10-26T22:21:12.583Z,100.00
2022-10-26T22:23:40.543Z,100.00
2022-10-26T22:26:10.716Z,100.00
2022-10-26T22:28:41.681Z,100.00
2022-10-26T22:31:13.105Z,100.00
2022-10-26T22:33:40.556Z,100.00
2022-10-26T22:36:17.240Z,100.00
2022-10-26T22:38:44.123Z,100.00
2022-10-26T22:41:11.400Z,100.00
2022-10-26T22:43:38.337Z,100.00
2022-10-26T22:46:06.710Z,100.00
2022-10-26T22:48:34.311Z,100.00
2022-10-26T22:51:12.670Z,100.00
2022-10-26T22:53:39.359Z,100.00
2022-10-26T22:56:07.970Z,100.00
2022-10-26T22:58:35.217Z,100.00
2022-10-26T23:01:07.135Z,100.00
2022-10-26T23:03:34.797Z,100.00
2022-10-26T23:06:02.160Z,100.00
2022-10-26T23:08:28.740Z,100.00
2022-10-26T23:11:07.631Z,100.00
2022-10-26T23:13:34.405Z,100.00
2022-10-26T23:16:14.443Z,100.00
2022-10-26T23:18:41.655Z,100.00
2022-10-26T23:21:10.603Z,100.00
2022-10-26T23:23:37.628Z,100.00
2022-10-26T23:26:09.358Z,100.00
2022-10-26T23:28:36.400Z,100.00
2022-10-26T23:31:03.608Z,100.00
2022-10-26T23:33:30.557Z,100.00
2022-10-26T23:35:57.583Z,100.00
2022-10-26T23:38:25.137Z,100.00
2022-10-26T23:40:53.429Z,100.00
2022-10-26T23:43:20.439Z,100.00
2022-10-26T23:45:47.666Z,100.00
2022-10-26T23:48:15.280Z,100.00
2022-10-26T23:50:43.293Z,100.00
2022-10-26T23:53:10.988Z,100.00
2022-10-26T23:55:37.462Z,100.00
2022-10-26T23:58:04.320Z,100.00
